Time;durP1;ratioP1;P1;durP2;ratioP2;P2;SDS_P1;SDS_P2;PMS_P1;PMS_P2;Temp;Humidity;BMP_temperature;BMP_pressure;BME280_temperature;BME280_humidity;BME280_pressure;Samples;Min_cycle;Max_cycle;Signal;HPM_P1;HPM_P2
2022/09/14 09:33:04;;;;;;;13.95;11.18;;;;;;;;;;6269498;22;20126;-73
2022/09/14 09:35:39;;;;;;;9.30;8.30;;;;;;;;;;6281913;22;20043;-93
2022/09/14 09:38:14;;;;;;;11.27;10.05;;;;;;;;;;6287200;22;20033;-80
2022/09/14 09:40:47;;;;;;;9.63;8.43;;;;;;;;;;6265384;22;20008;-80
2022/09/14 09:43:15;;;;;;;9.57;7.78;;;;;;;;;;6247357;23;20327;-78
2022/09/14 09:46:03;;;;;;;10.85;8.65;;;;;;;;;;6247251;23;20011;-80
2022/09/14 09:48:42;;;;;;;10.17;9.17;;;;;;;;;;6247201;23;20004;-94
2022/09/14 09:51:16;;;;;;;6.00;5.13;;;;;;;;;;6246708;22;20004;-80
2022/09/14 09:54:14;;;;;;;5.65;5.03;;;;;;;;;;6221044;23;20028;-96
2022/09/14 09:56:54;;;;;;;5.07;4.60;;;;;;;;;;6257937;23;20004;-79
2022/09/14 09:59:22;;;;;;;5.90;5.25;;;;;;;;;;6259650;22;20008;-79
2022/09/14 10:01:47;;;;;;;6.90;5.07;;;;;;;;;;6246766;23;20058;-84
2022/09/14 10:04:19;;;;;;;6.80;6.10;;;;;;;;;;6246814;23;20043;-82
2022/09/14 10:06:50;;;;;;;7.55;5.70;;;;;;;;;;6247639;23;20435;-81
2022/09/14 10:09:22;;;;;;;7.68;5.78;;;;;;;;;;6246789;23;20027;-84
2022/09/14 10:11:57;;;;;;;6.78;6.18;;;;;;;;;;6246586;23;20004;-80
2022/09/14 10:14:25;;;;;;;7.78;6.90;;;;;;;;;;6246717;23;20004;-81
2022/09/14 10:16:51;;;;;;;9.55;6.80;;;;;;;;;;6248217;23;20054;-77
2022/09/14 10:19:24;;;;;;;9.95;6.97;;;;;;;;;;6249515;23;20022;-94
2022/09/14 10:22:18;;;;;;;12.15;6.65;;;;;;;;;;6220376;23;20328;-87
2022/09/14 10:24:56;;;;;;;8.05;5.80;;;;;;;;;;6246923;23;20004;-80
2022/09/14 10:27:34;;;;;;;7.47;6.20;;;;;;;;;;6246574;23;20061;-90
2022/09/14 10:30:03;;;;;;;6.80;5.85;;;;;;;;;;6219777;23;20334;-80
2022/09/14 10:32:31;;;;;;;6.55;5.35;;;;;;;;;;6246842;23;20000;-78
2022/09/14 10:34:57;;;;;;;5.80;4.80;;;;;;;;;;6246375;23;20008;-80
2022/09/14 10:37:36;;;;;;;5.55;4.65;;;;;;;;;;6246355;23;20375;-79
2022/09/14 10:40:18;;;;;;;4.90;4.13;;;;;;;;;;6246675;22;20006;-79
2022/09/14 10:43:21;;;;;;;5.80;5.30;;;;;;;;;;6246818;23;20091;-88
2022/09/14 10:45:51;;;;;;;4.72;4.22;;;;;;;;;;6246362;23;20363;-84
2022/09/14 10:48:39;;;;;;;6.88;4.35;;;;;;;;;;6246671;23;20007;-87
2022/09/14 10:51:22;;;;;;;6.32;3.90;;;;;;;;;;6246522;22;20034;-87
2022/09/14 10:53:56;;;;;;;8.23;4.05;;;;;;;;;;6249554;23;19996;-86
2022/09/14 10:56:43;;;;;;;4.38;3.65;;;;;;;;;;6249744;23;20034;-85
2022/09/14 10:59:14;;;;;;;6.43;4.10;;;;;;;;;;6252241;23;20000;-88
2022/09/14 11:02:00;;;;;;;4.80;4.30;;;;;;;;;;6250034;22;20054;-87
2022/09/14 11:04:53;;;;;;;5.63;3.47;;;;;;;;;;6250384;23;20012;-86
2022/09/14 11:07:30;;;;;;;3.90;3.50;;;;;;;;;;6250009;23;20016;-78
2022/09/14 11:10:20;;;;;;;5.35;3.47;;;;;;;;;;6249651;22;20004;-78
2022/09/14 11:13:24;;;;;;;4.05;3.03;;;;;;;;;;6249236;23;20039;-86
2022/09/14 11:16:05;;;;;;;5.53;3.35;;;;;;;;;;6098136;23;20038;-78
2022/09/14 11:18:46;;;;;;;6.75;3.40;;;;;;;;;;6237037;23;20407;-78
2022/09/14 11:21:19;;;;;;;4.35;3.95;;;;;;;;;;6249520;22;20099;-86
2022/09/14 11:23:50;;;;;;;4.15;3.72;;;;;;;;;;6249688;23;20004;-79
2022/09/14 11:26:31;;;;;;;4.22;3.83;;;;;;;;;;6249702;23;20011;-84
2022/09/14 11:29:07;;;;;;;9.88;6.45;;;;;;;;;;6250233;23;20000;-78
2022/09/14 11:32:03;;;;;;;8.30;7.25;;;;;;;;;;6249535;22;20011;-89
2022/09/14 11:34:34;;;;;;;7.47;6.78;;;;;;;;;;6249548;23;20032;-77
2022/09/14 11:37:09;;;;;;;8.25;6.85;;;;;;;;;;6249850;23;20000;-87
2022/09/14 11:39:41;;;;;;;9.75;8.70;;;;;;;;;;6250821;22;20008;-77
2022/09/14 11:42:10;;;;;;;13.50;7.05;;;;;;;;;;6249606;23;20079;-88
2022/09/14 11:44:41;;;;;;;7.68;6.40;;;;;;;;;;6249540;23;20079;-87
2022/09/14 16:52:35;;;;;;;6.05;3.70;;;;;;;;;;6247689;22;20360;-76
